Time;durP1;ratioP1;P1;durP2;ratioP2;P2;SDS_P1;SDS_P2;PMS_P1;PMS_P2;Temp;Humidity;BMP_temperature;BMP_pressure;BME280_temperature;BME280_humidity;BME280_pressure;Samples;Min_cycle;Max_cycle;Signal;HPM_P1;HPM_P2
2023/05/29 00:01:20;;;;;;;;;;;10.40;99.90;;;;;;5087701;28;19936;-82
2023/05/29 00:03:46;;;;;;;;;;;10.40;99.90;;;;;;5091800;28;19932;-84
2023/05/29 00:06:13;;;;;;;;;;;10.40;99.90;;;;;;5093323;28;20437;-84
2023/05/29 00:08:38;;;;;;;;;;;10.40;99.90;;;;;;5073947;28;20098;-86
2023/05/29 00:11:04;;;;;;;;;;;10.30;99.90;;;;;;5096054;28;20014;-85
2023/05/29 00:13:30;;;;;;;;;;;10.30;99.90;;;;;;5091237;28;20002;-85
2023/05/29 00:15:56;;;;;;;;;;;10.30;99.90;;;;;;5095229;28;19973;-86
2023/05/29 00:18:21;;;;;;;;;;;10.20;99.90;;;;;;5095682;28;20351;-85
2023/05/29 00:20:47;;;;;;;;;;;10.00;99.90;;;;;;5072776;28;19985;-85
2023/05/29 00:23:12;;;;;;;;;;;10.00;99.90;;;;;;5097580;28;19951;-87
2023/05/29 00:25:40;;;;;;;;;;;10.00;99.90;;;;;;5091402;28;19928;-85
2023/05/29 00:28:07;;;;;;;;;;;10.10;99.90;;;;;;5096580;28;19928;-84
2023/05/29 00:30:32;;;;;;;;;;;10.10;99.90;;;;;;5081017;28;19924;-86
2023/05/29 00:32:58;;;;;;;;;;;10.20;99.90;;;;;;5088353;28;19950;-86
2023/05/29 00:35:24;;;;;;;;;;;10.20;99.90;;;;;;5099516;28;19927;-86
2023/05/29 00:37:49;;;;;;;;;;;10.00;99.90;;;;;;5087202;28;20386;-85
2023/05/29 00:40:15;;;;;;;;;;;10.00;99.90;;;;;;5099804;28;19932;-86
2023/05/29 00:42:43;;;;;;;;;;;10.00;99.90;;;;;;5094141;28;20283;-85
2023/05/29 00:45:09;;;;;;;;;;;10.00;99.90;;;;;;5094706;28;20100;-86
2023/05/29 00:47:35;;;;;;;;;;;9.90;99.90;;;;;;5091925;28;20274;-85
2023/05/29 00:50:13;;;;;;;;;;;10.00;99.90;;;;;;5089447;28;20527;-83
2023/05/29 00:52:44;;;;;;;;;;;9.90;99.90;;;;;;5070862;28;20349;-85
2023/05/29 00:55:09;;;;;;;;;;;10.00;99.90;;;;;;5099363;28;19923;-86
2023/05/29 00:57:36;;;;;;;;;;;10.00;99.90;;;;;;5071628;28;20400;-85
2023/05/29 01:00:07;;;;;;;;;;;9.80;99.90;;;;;;5094465;28;19978;-87
2023/05/29 01:02:36;;;;;;;;;;;9.80;99.90;;;;;;5088878;28;19932;-85
2023/05/29 01:05:01;;;;;;;;;;;9.70;99.90;;;;;;5096687;28;19928;-85
2023/05/29 01:07:27;;;;;;;;;;;9.80;99.90;;;;;;5094951;28;19928;-85
2023/05/29 01:09:52;;;;;;;;;;;9.70;99.90;;;;;;5092858;28;19924;-85
2023/05/29 01:12:18;;;;;;;;;;;9.70;99.90;;;;;;5091356;28;19932;-85
2023/05/29 01:14:55;;;;;;;;;;;9.70;99.90;;;;;;5090634;28;20050;-85
2023/05/29 01:17:29;;;;;;;;;;;9.70;99.90;;;;;;5095638;28;19924;-84
2023/05/29 01:20:07;;;;;;;;;;;9.60;99.90;;;;;;5095840;28;19931;-86
2023/05/29 01:22:52;;;;;;;;;;;9.70;99.90;;;;;;5087569;28;19943;-84
2023/05/29 01:25:21;;;;;;;;;;;9.70;99.90;;;;;;5098350;28;20409;-84
2023/05/29 01:27:47;;;;;;;;;;;9.50;99.90;;;;;;5097089;28;19928;-85
2023/05/29 01:30:14;;;;;;;;;;;9.60;99.90;;;;;;5099646;28;19928;-84
2023/05/29 01:32:41;;;;;;;;;;;9.50;99.90;;;;;;5094008;28;19982;-85
2023/05/29 01:35:06;;;;;;;;;;;9.50;99.90;;;;;;5096547;28;20018;-85
2023/05/29 01:37:32;;;;;;;;;;;9.60;99.90;;;;;;5101250;28;20022;-86
2023/05/29 01:39:57;;;;;;;;;;;9.50;99.90;;;;;;5077432;28;19931;-85
2023/05/29 01:42:23;;;;;;;;;;;9.50;99.90;;;;;;5102108;28;20301;-85
2023/05/29 01:44:49;;;;;;;;;;;9.30;99.90;;;;;;5098702;28;19984;-85
2023/05/29 01:47:15;;;;;;;;;;;9.40;99.90;;;;;;5093888;28;19989;-85
2023/05/29 01:49:42;;;;;;;;;;;9.50;99.90;;;;;;5097282;28;19927;-84
2023/05/29 01:52:07;;;;;;;;;;;9.40;99.90;;;;;;5097245;28;20019;-85
2023/05/29 01:54:33;;;;;;;;;;;9.40;99.90;;;;;;5099427;28;20631;-84
2023/05/29 01:56:59;;;;;;;;;;;9.40;99.90;;;;;;5098074;28;19932;-84
2023/05/29 01:59:25;;;;;;;;;;;9.30;99.90;;;;;;5077601;28;19923;-84
2023/05/29 02:01:50;;;;;;;;;;;9.40;99.90;;;;;;5098540;28;19928;-86
2023/05/29 02:04:16;;;;;;;;;;;9.30;99.90;;;;;;5095245;28;19932;-84
2023/05/29 02:06:41;;;;;;;;;;;9.40;99.90;;;;;;5095938;28;19934;-86
2023/05/29 02:09:07;;;;;;;;;;;9.30;99.90;;;;;;5102178;28;20015;-85
2023/05/29 02:11:32;;;;;;;;;;;9.20;99.90;;;;;;5078661;28;19959;-85
2023/05/29 02:13:58;;;;;;;;;;;9.30;99.90;;;;;;5101038;28;19927;-85
2023/05/29 02:16:23;;;;;;;;;;;9.40;99.90;;;;;;5095894;28;19935;-84
2023/05/29 02:18:49;;;;;;;;;;;9.30;99.90;;;;;;5096822;28;20019;-85
2023/05/29 02:21:14;;;;;;;;;;;9.40;99.90;;;;;;5100173;28;20330;-84
2023/05/29 02:23:40;;;;;;;;;;;9.40;99.90;;;;;;5093781;28;20262;-84
2023/05/29 02:26:06;;;;;;;;;;;9.30;99.90;;;;;;5100029;28;20012;-86
2023/05/29 02:28:31;;;;;;;;;;;9.30;99.90;;;;;;5099576;28;19970;-84
2023/05/29 02:30:57;;;;;;;;;;;9.30;99.90;;;;;;5095501;28;20312;-87
2023/05/29 02:33:22;;;;;;;;;;;9.30;99.90;;;;;;5101570;28;20422;-84
2023/05/29 02:35:48;;;;;;;;;;;9.30;99.90;;;;;;5074235;28;19933;-84
2023/05/29 02:38:13;;;;;;;;;;;9.10;99.90;;;;;;5097436;28;19927;-84
2023/05/29 02:40:39;;;;;;;;;;;9.20;99.90;;;;;;5098853;28;19928;-84
2023/05/29 02:43:05;;;;;;;;;;;9.30;99.90;;;;;;5096986;28;19928;-83
2023/05/29 02:45:31;;;;;;;;;;;9.20;99.90;;;;;;5102462;28;19947;-84
2023/05/29 02:47:56;;;;;;;;;;;9.10;99.90;;;;;;5094690;28;20081;-84
2023/05/29 02:50:22;;;;;;;;;;;9.10;99.90;;;;;;5098418;28;20010;-84
2023/05/29 02:52:47;;;;;;;;;;;9.10;99.90;;;;;;5101659;28;20069;-84
2023/05/29 02:55:13;;;;;;;;;;;9.20;99.90;;;;;;5094857;28;20022;-85
2023/05/29 02:57:38;;;;;;;;;;;9.00;99.90;;;;;;5098422;28;20760;-84
2023/05/29 03:00:06;;;;;;;;;;;9.00;99.90;;;;;;5096349;28;19932;-84
2023/05/29 03:02:31;;;;;;;;;;;9.00;99.90;;;;;;5098098;28;19935;-83
2023/05/29 03:04:57;;;;;;;;;;;9.10;99.90;;;;;;5103079;28;19928;-84
2023/05/29 03:07:22;;;;;;;;;;;9.00;99.90;;;;;;5091230;28;19928;-84
2023/05/29 03:09:48;;;;;;;;;;;9.10;99.90;;;;;;5096498;28;19935;-84
2023/05/29 03:12:13;;;;;;;;;;;9.00;99.90;;;;;;5093905;28;19935;-84
2023/05/29 03:14:40;;;;;;;;;;;9.00;99.90;;;;;;5100791;28;19950;-83
2023/05/29 03:17:05;;;;;;;;;;;9.00;99.90;;;;;;5083701;28;19980;-85
2023/05/29 03:19:31;;;;;;;;;;;9.00;99.90;;;;;;5080915;28;20042;-84
2023/05/29 03:21:57;;;;;;;;;;;8.90;99.90;;;;;;5096326;28;20009;-84
2023/05/29 03:24:23;;;;;;;;;;;8.80;99.90;;;;;;5095494;28;19927;-84
2023/05/29 03:26:49;;;;;;;;;;;8.80;99.90;;;;;;5080440;28;19928;-84
2023/05/29 03:29:16;;;;;;;;;;;8.90;99.90;;;;;;5095735;28;19962;-84
2023/05/29 03:31:41;;;;;;;;;;;8.80;99.90;;;;;;5095682;28;20014;-84
2023/05/29 03:34:07;;;;;;;;;;;8.80;99.90;;;;;;5084357;28;20084;-85
2023/05/29 03:36:33;;;;;;;;;;;8.90;99.90;;;;;;5093547;28;19928;-85
2023/05/29 03:38:58;;;;;;;;;;;8.80;99.90;;;;;;5098868;28;19928;-84
2023/05/29 03:41:25;;;;;;;;;;;8.80;99.90;;;;;;5095657;28;20068;-85
2023/05/29 03:43:50;;;;;;;;;;;8.80;99.90;;;;;;5090013;28;19935;-84
2023/05/29 03:46:16;;;;;;;;;;;8.80;99.90;;;;;;5082677;28;19932;-84
2023/05/29 03:48:41;;;;;;;;;;;8.80;99.90;;;;;;5076412;28;19927;-85
2023/05/29 03:51:07;;;;;;;;;;;8.80;99.90;;;;;;5099336;28;19924;-85
2023/05/29 03:53:33;;;;;;;;;;;8.90;99.90;;;;;;5081859;28;19974;-85
2023/05/29 03:55:58;;;;;;;;;;;8.80;99.90;;;;;;5092381;28;19932;-86
2023/05/29 03:58:24;;;;;;;;;;;8.90;99.90;;;;;;5099905;28;19927;-84
2023/05/29 04:00:49;;;;;;;;;;;8.80;99.90;;;;;;5088751;28;20054;-85
2023/05/29 04:03:15;;;;;;;;;;;8.80;99.90;;;;;;5093587;28;19924;-84
2023/05/29 04:05:40;;;;;;;;;;;8.80;99.90;;;;;;5099066;28;20642;-84
2023/05/29 04:08:08;;;;;;;;;;;8.90;99.90;;;;;;5090803;28;19928;-84
2023/05/29 04:10:34;;;;;;;;;;;8.90;99.90;;;;;;5082553;28;19935;-84
2023/05/29 04:13:00;;;;;;;;;;;8.90;99.90;;;;;;5097268;28;20381;-84
2023/05/29 04:15:30;;;;;;;;;;;9.10;99.90;;;;;;5099095;28;19940;-85
2023/05/29 04:17:56;;;;;;;;;;;9.00;99.90;;;;;;5099397;28;19934;-85
2023/05/29 04:20:21;;;;;;;;;;;9.00;99.90;;;;;;5095338;28;19928;-85
2023/05/29 04:22:47;;;;;;;;;;;9.10;99.90;;;;;;5080848;28;19939;-85
2023/05/29 04:25:12;;;;;;;;;;;9.10;99.90;;;;;;5097806;28;19928;-85
2023/05/29 04:27:38;;;;;;;;;;;9.20;99.90;;;;;;5099497;28;19934;-84
2023/05/29 04:30:05;;;;;;;;;;;9.30;99.90;;;;;;5096043;28;19935;-84
2023/05/29 04:32:30;;;;;;;;;;;9.30;99.90;;;;;;5097020;28;20062;-84
2023/05/29 04:34:56;;;;;;;;;;;9.50;99.90;;;;;;5099143;28;20010;-84
2023/05/29 04:37:28;;;;;;;;;;;9.60;99.90;;;;;;5080334;28;19958;-85
2023/05/29 04:39:55;;;;;;;;;;;9.80;99.90;;;;;;5098139;28;19934;-84
2023/05/29 04:42:20;;;;;;;;;;;9.90;99.90;;;;;;5096388;28;19928;-84
2023/05/29 04:44:46;;;;;;;;;;;10.20;99.90;;;;;;5098060;28;19924;-84
2023/05/29 04:47:12;;;;;;;;;;;11.80;99.90;;;;;;5098537;28;19928;-85
2023/05/29 04:49:39;;;;;;;;;;;12.70;99.90;;;;;;5095726;28;19934;-85
2023/05/29 04:52:04;;;;;;;;;;;13.40;99.90;;;;;;5095260;28;19928;-85
2023/05/29 04:54:30;;;;;;;;;;;14.10;99.90;;;;;;5085228;28;20411;-86
2023/05/29 04:56:56;;;;;;;;;;;14.30;99.90;;;;;;5097474;28;19974;-85
2023/05/29 04:59:21;;;;;;;;;;;14.60;99.90;;;;;;5095498;28;19975;-85
2023/05/29 05:01:48;;;;;;;;;;;15.10;99.90;;;;;;5094038;28;19932;-85
2023/05/29 05:04:13;;;;;;;;;;;15.70;99.90;;;;;;5096796;28;20415;-84
2023/05/29 05:06:39;;;;;;;;;;;16.00;99.90;;;;;;5093848;28;19935;-85
2023/05/29 05:09:04;;;;;;;;;;;17.00;99.90;;;;;;5097376;28;19981;-85
2023/05/29 05:11:30;;;;;;;;;;;17.90;99.90;;;;;;5097897;28;19985;-85
2023/05/29 05:13:55;;;;;;;;;;;17.20;99.90;;;;;;5098696;28;19951;-87
2023/05/29 05:16:21;;;;;;;;;;;18.80;99.90;;;;;;5098897;28;19971;-85
2023/05/29 05:18:46;;;;;;;;;;;19.00;99.90;;;;;;5097724;28;19938;-85
2023/05/29 05:21:12;;;;;;;;;;;19.10;99.90;;;;;;5097769;28;20441;-86
2023/05/29 05:23:38;;;;;;;;;;;19.80;99.90;;;;;;5095921;28;19928;-86
2023/05/29 05:26:03;;;;;;;;;;;19.90;99.90;;;;;;5094504;28;19992;-88
2023/05/29 05:28:29;;;;;;;;;;;20.20;99.90;;;;;;5098914;28;19970;-89
2023/05/29 05:30:54;;;;;;;;;;;20.60;99.90;;;;;;5080829;28;19924;-86
2023/05/29 05:33:20;;;;;;;;;;;20.40;99.90;;;;;;5078925;28;19928;-86
2023/05/29 05:35:45;;;;;;;;;;;20.60;99.90;;;;;;5080983;28;20404;-86
2023/05/29 05:38:12;;;;;;;;;;;20.60;99.90;;;;;;5097471;28;19928;-87
2023/05/29 05:40:37;;;;;;;;;;;20.80;99.90;;;;;;5099207;28;19931;-85
2023/05/29 05:43:03;;;;;;;;;;;20.80;99.90;;;;;;5096635;28;20300;-87
2023/05/29 05:45:28;;;;;;;;;;;18.30;99.90;;;;;;5096553;28;20030;-86
2023/05/29 05:47:54;;;;;;;;;;;17.60;99.90;;;;;;5081476;28;20006;-86
2023/05/29 05:50:21;;;;;;;;;;;16.90;99.90;;;;;;5097986;28;19967;-87
2023/05/29 05:52:46;;;;;;;;;;;16.90;99.90;;;;;;5082440;28;20609;-87
2023/05/29 05:55:12;;;;;;;;;;;16.80;99.90;;;;;;5094766;28;19961;-84
2023/05/29 05:57:37;;;;;;;;;;;16.00;99.90;;;;;;5080339;28;19957;-85
2023/05/29 06:00:12;;;;;;;;;;;16.10;99.90;;;;;;5098653;28;19947;-87
2023/05/29 06:02:41;;;;;;;;;;;15.70;99.90;;;;;;5093588;28;19935;-86
2023/05/29 06:05:07;;;;;;;;;;;16.20;99.90;;;;;;5097503;28;19932;-86
2023/05/29 06:07:32;;;;;;;;;;;16.30;99.90;;;;;;5096794;28;19972;-84
2023/05/29 06:09:58;;;;;;;;;;;16.10;99.90;;;;;;5098992;28;20384;-88
2023/05/29 06:12:24;;;;;;;;;;;16.00;99.90;;;;;;5102309;28;20079;-86
2023/05/29 06:14:50;;;;;;;;;;;16.40;99.90;;;;;;5087676;28;19932;-83
2023/05/29 06:17:16;;;;;;;;;;;16.40;99.90;;;;;;5101589;28;19927;-85
2023/05/29 06:19:41;;;;;;;;;;;15.90;99.90;;;;;;5098819;28;20408;-83
2023/05/29 06:22:07;;;;;;;;;;;16.10;99.90;;;;;;5100312;28;19932;-84
2023/05/29 06:24:32;;;;;;;;;;;15.80;99.90;;;;;;5101850;28;20023;-84
2023/05/29 06:26:58;;;;;;;;;;;15.70;99.90;;;;;;5098259;28;19924;-85
2023/05/29 06:29:23;;;;;;;;;;;15.50;99.90;;;;;;5101629;28;19963;-83
2023/05/29 06:31:49;;;;;;;;;;;15.90;99.90;;;;;;5098478;28;19935;-83
2023/05/29 06:34:14;;;;;;;;;;;16.10;99.90;;;;;;5086751;28;19928;-86
2023/05/29 06:36:41;;;;;;;;;;;15.60;99.90;;;;;;5083507;28;19928;-84
2023/05/29 06:39:07;;;;;;;;;;;15.80;99.90;;;;;;5100296;28;19935;-85
2023/05/29 06:41:33;;;;;;;;;;;16.00;99.90;;;;;;5083660;28;19928;-85
2023/05/29 06:44:01;;;;;;;;;;;16.20;99.90;;;;;;5098951;28;19928;-84
2023/05/29 06:46:27;;;;;;;;;;;16.10;99.90;;;;;;5097889;28;20043;-85
2023/05/29 06:48:52;;;;;;;;;;;16.40;99.90;;;;;;5097850;28;20038;-84
2023/05/29 06:51:18;;;;;;;;;;;17.10;99.90;;;;;;5095821;28;19963;-84
2023/05/29 06:53:44;;;;;;;;;;;16.60;99.90;;;;;;5099431;28;19962;-85
2023/05/29 06:56:10;;;;;;;;;;;15.90;99.90;;;;;;5099879;28;19977;-86
2023/05/29 06:58:35;;;;;;;;;;;16.70;99.90;;;;;;5097353;28;19939;-87
2023/05/29 07:01:01;;;;;;;;;;;17.00;99.90;;;;;;5097278;28;19924;-85
2023/05/29 07:03:27;;;;;;;;;;;16.70;99.90;;;;;;5082525;28;19932;-86
2023/05/29 07:05:52;;;;;;;;;;;16.90;99.90;;;;;;5096743;28;19924;-85
2023/05/29 07:08:18;;;;;;;;;;;16.60;99.90;;;;;;5097881;28;19931;-87
2023/05/29 07:10:44;;;;;;;;;;;16.60;99.90;;;;;;5097713;28;19947;-84
2023/05/29 07:13:09;;;;;;;;;;;16.80;99.90;;;;;;5099408;28;20278;-85
2023/05/29 07:15:36;;;;;;;;;;;17.20;99.90;;;;;;5098793;28;20002;-83
2023/05/29 07:18:02;;;;;;;;;;;17.20;99.90;;;;;;5096828;28;19954;-84
2023/05/29 07:20:28;;;;;;;;;;;16.90;99.90;;;;;;5096913;28;19947;-83
2023/05/29 07:22:53;;;;;;;;;;;16.60;99.90;;;;;;5099715;28;19950;-85
2023/05/29 07:25:19;;;;;;;;;;;16.80;99.90;;;;;;5096359;28;19924;-85
2023/05/29 07:27:44;;;;;;;;;;;17.00;99.90;;;;;;5095596;28;21524;-86
2023/05/29 07:30:10;;;;;;;;;;;16.60;99.90;;;;;;5100615;28;20949;-86
2023/05/29 07:32:36;;;;;;;;;;;17.30;99.90;;;;;;5098729;28;20590;-85
2023/05/29 07:35:01;;;;;;;;;;;16.90;99.90;;;;;;5098666;28;19962;-86
2023/05/29 07:37:27;;;;;;;;;;;17.00;99.90;;;;;;5095593;28;19980;-85
2023/05/29 07:39:52;;;;;;;;;;;17.10;99.90;;;;;;5097323;28;19935;-85
2023/05/29 07:42:18;;;;;;;;;;;16.30;99.90;;;;;;5101063;28;19928;-86
2023/05/29 07:44:45;;;;;;;;;;;17.20;99.90;;;;;;5099489;28;20051;-89
2023/05/29 07:47:11;;;;;;;;;;;17.20;99.90;;;;;;5098029;28;19924;-87
2023/05/29 07:49:36;;;;;;;;;;;17.20;99.90;;;;;;5096214;28;19928;-85
2023/05/29 07:52:02;;;;;;;;;;;17.20;99.90;;;;;;5092752;28;19928;-86
2023/05/29 07:54:28;;;;;;;;;;;17.00;99.90;;;;;;5094005;28;19955;-89
2023/05/29 07:56:54;;;;;;;;;;;17.00;99.90;;;;;;5099605;28;20376;-84
2023/05/29 07:59:21;;;;;;;;;;;17.50;99.90;;;;;;5079928;28;19931;-87
2023/05/29 08:01:47;;;;;;;;;;;17.50;99.90;;;;;;5098374;28;19928;-83
2023/05/29 08:04:12;;;;;;;;;;;17.40;99.90;;;;;;5082330;28;19932;-82
2023/05/29 08:06:42;;;;;;;;;;;17.30;99.90;;;;;;5089900;28;19973;-88
2023/05/29 08:09:07;;;;;;;;;;;17.30;99.90;;;;;;5079661;28;19932;-86
2023/05/29 08:11:34;;;;;;;;;;;17.10;99.90;;;;;;5096538;28;19973;-81
2023/05/29 08:14:00;;;;;;;;;;;16.60;99.90;;;;;;5095785;28;19931;-85
2023/05/29 08:16:27;;;;;;;;;;;17.00;99.90;;;;;;5094782;28;19980;-85
2023/05/29 08:18:52;;;;;;;;;;;17.40;99.90;;;;;;5079892;28;19927;-86
2023/05/29 08:21:18;;;;;;;;;;;17.50;99.90;;;;;;5094269;28;19931;-84
2023/05/29 08:23:43;;;;;;;;;;;17.80;99.90;;;;;;5079637;28;20703;-84
2023/05/29 08:26:09;;;;;;;;;;;17.90;99.90;;;;;;5096777;28;19931;-84
2023/05/29 08:28:35;;;;;;;;;;;17.20;99.90;;;;;;5098119;28;19928;-85
2023/05/29 08:31:00;;;;;;;;;;;16.60;99.90;;;;;;5101330;28;19928;-83
2023/05/29 08:33:26;;;;;;;;;;;17.30;99.90;;;;;;5097431;28;19940;-83
2023/05/29 08:35:52;;;;;;;;;;;17.00;99.90;;;;;;5096362;28;19928;-83
2023/05/29 08:38:17;;;;;;;;;;;17.30;99.90;;;;;;5094005;28;19933;-85
2023/05/29 08:40:43;;;;;;;;;;;17.80;99.90;;;;;;5098684;28;19939;-85
2023/05/29 08:43:16;;;;;;;;;;;17.70;99.90;;;;;;5093620;28;19935;-85
2023/05/29 08:45:45;;;;;;;;;;;17.60;99.90;;;;;;5094703;28;19927;-87
2023/05/29 08:48:14;;;;;;;;;;;17.90;99.90;;;;;;5097831;28;19936;-85
2023/05/29 08:50:43;;;;;;;;;;;17.50;99.90;;;;;;5092734;28;20289;-82
2023/05/29 08:53:09;;;;;;;;;;;17.60;99.90;;;;;;5096916;28;20023;-84
2023/05/29 08:55:35;;;;;;;;;;;17.50;99.90;;;;;;5099139;28;20358;-84
2023/05/29 08:58:02;;;;;;;;;;;17.80;99.90;;;;;;5097106;28;19941;-85
2023/05/29 09:00:29;;;;;;;;;;;18.00;99.90;;;;;;5097478;28;20696;-86
2023/05/29 09:02:55;;;;;;;;;;;17.50;99.90;;;;;;5097121;28;20339;-84
2023/05/29 09:05:21;;;;;;;;;;;18.40;99.90;;;;;;5095322;28;19935;-85
2023/05/29 09:07:49;;;;;;;;;;;18.50;99.90;;;;;;5099801;28;19928;-84
2023/05/29 09:10:15;;;;;;;;;;;18.40;99.90;;;;;;5095657;28;19934;-85
2023/05/29 09:12:41;;;;;;;;;;;19.00;99.90;;;;;;5072830;28;19932;-84
2023/05/29 09:15:27;;;;;;;;;;;18.70;99.90;;;;;;5091815;28;19955;-85
2023/05/29 09:17:53;;;;;;;;;;;18.00;99.90;;;;;;5090391;28;19927;-88
2023/05/29 09:20:23;;;;;;;;;;;18.70;99.90;;;;;;5090755;28;19931;-85
2023/05/29 09:22:55;;;;;;;;;;;18.70;99.90;;;;;;5090931;28;20505;-87
2023/05/29 09:25:26;;;;;;;;;;;18.90;99.90;;;;;;5086294;28;19943;-86
2023/05/29 09:28:12;;;;;;;;;;;19.10;99.90;;;;;;5090402;28;20171;-85
2023/05/29 09:30:42;;;;;;;;;;;19.20;99.90;;;;;;5093329;28;20030;-87
2023/05/29 09:33:09;;;;;;;;;;;19.70;99.90;;;;;;5090285;28;19927;-86
2023/05/29 09:35:36;;;;;;;;;;;18.80;99.90;;;;;;5083684;28;19935;-86
2023/05/29 09:38:02;;;;;;;;;;;19.00;99.90;;;;;;5089038;28;19935;-85
2023/05/29 09:40:34;;;;;;;;;;;18.90;99.90;;;;;;5089740;28;20393;-85
2023/05/29 09:43:09;;;;;;;;;;;19.40;99.90;;;;;;5084892;28;20012;-87
2023/05/29 09:45:41;;;;;;;;;;;18.80;99.90;;;;;;5092009;28;19931;-86
2023/05/29 09:48:08;;;;;;;;;;;18.60;99.90;;;;;;5086325;28;19924;-83
2023/05/29 09:50:34;;;;;;;;;;;19.20;99.90;;;;;;5093847;28;19932;-92
2023/05/29 09:53:01;;;;;;;;;;;18.90;99.90;;;;;;5096770;28;19932;-87
2023/05/29 09:55:28;;;;;;;;;;;18.60;99.90;;;;;;5073058;28;20044;-86
2023/05/29 09:57:54;;;;;;;;;;;18.80;99.90;;;;;;5067580;28;19935;-88
2023/05/29 10:00:21;;;;;;;;;;;18.60;99.90;;;;;;5074240;28;20055;-83
2023/05/29 10:02:50;;;;;;;;;;;18.90;99.90;;;;;;5076706;28;19928;-85
2023/05/29 10:05:16;;;;;;;;;;;18.80;99.90;;;;;;5095749;28;20019;-85
2023/05/29 10:07:49;;;;;;;;;;;18.50;99.90;;;;;;5092506;28;19936;-86
2023/05/29 10:10:16;;;;;;;;;;;19.10;99.90;;;;;;5082155;28;19928;-87
2023/05/29 10:12:45;;;;;;;;;;;19.40;99.90;;;;;;5079897;28;19928;-85
2023/05/29 10:15:14;;;;;;;;;;;19.20;99.90;;;;;;5098995;28;20322;-85
2023/05/29 10:17:44;;;;;;;;;;;19.30;99.90;;;;;;5082270;28;19923;-84
2023/05/29 10:20:15;;;;;;;;;;;19.40;99.90;;;;;;5100782;28;20369;-83
2023/05/29 10:22:45;;;;;;;;;;;19.70;99.90;;;;;;5086057;28;19923;-85
2023/05/29 10:25:10;;;;;;;;;;;19.70;99.90;;;;;;5098973;28;20412;-84
2023/05/29 10:27:36;;;;;;;;;;;20.00;99.90;;;;;;5097532;28;19969;-86
2023/05/29 10:30:06;;;;;;;;;;;19.30;99.90;;;;;;5099897;28;20641;-86
2023/05/29 10:32:51;;;;;;;;;;;19.40;99.90;;;;;;5078081;28;20569;-86
2023/05/29 10:35:27;;;;;;;;;;;19.70;99.90;;;;;;5095236;28;20796;-84
2023/05/29 10:38:09;;;;;;;;;;;19.30;99.90;;;;;;5101106;28;20537;-85
2023/05/29 10:40:35;;;;;;;;;;;19.20;99.90;;;;;;5093933;28;19993;-82
2023/05/29 10:43:01;;;;;;;;;;;19.40;99.90;;;;;;5094958;28;20024;-86
2023/05/29 10:45:32;;;;;;;;;;;19.40;99.90;;;;;;5095429;28;19935;-86
2023/05/29 10:48:07;;;;;;;;;;;19.90;99.90;;;;;;5098288;28;19927;-84
2023/05/29 10:50:45;;;;;;;;;;;20.10;99.90;;;;;;5099836;28;20018;-88
2023/05/29 10:53:15;;;;;;;;;;;19.70;99.90;;;;;;5098360;28;19924;-83
2023/05/29 10:55:40;;;;;;;;;;;19.80;99.90;;;;;;5099501;28;19934;-86
2023/05/29 10:58:06;;;;;;;;;;;19.80;99.90;;;;;;5095300;28;20332;-87
2023/05/29 11:00:32;;;;;;;;;;;19.70;99.90;;;;;;5096586;28;20001;-82
2023/05/29 11:03:01;;;;;;;;;;;19.80;99.90;;;;;;5098390;28;19959;-86
2023/05/29 11:05:27;;;;;;;;;;;19.70;99.90;;;;;;5095710;28;20440;-85
2023/05/29 11:07:56;;;;;;;;;;;19.30;98.60;;;;;;5097199;28;20042;-86
2023/05/29 11:10:41;;;;;;;;;;;19.40;99.90;;;;;;5098228;28;19933;-87
2023/05/29 11:13:07;;;;;;;;;;;19.40;99.90;;;;;;5098722;28;20390;-86
2023/05/29 11:15:33;;;;;;;;;;;20.10;99.90;;;;;;5099808;28;20312;-82
2023/05/29 11:18:08;;;;;;;;;;;20.30;99.90;;;;;;5100880;28;19930;-85
2023/05/29 11:20:39;;;;;;;;;;;20.60;99.90;;;;;;5091762;28;19939;-86
2023/05/29 11:23:08;;;;;;;;;;;20.80;99.90;;;;;;5099139;28;19928;-86
2023/05/29 11:25:37;;;;;;;;;;;20.90;99.90;;;;;;5099297;28;19935;-86
2023/05/29 11:28:04;;;;;;;;;;;19.90;99.90;;;;;;5083601;28;20029;-84
2023/05/29 11:30:30;;;;;;;;;;;20.60;99.90;;;;;;5096518;28;19927;-87
2023/05/29 11:32:57;;;;;;;;;;;19.90;99.90;;;;;;5100915;28;19931;-86
2023/05/29 11:35:23;;;;;;;;;;;20.30;99.90;;;;;;5098928;28;19924;-86
2023/05/29 11:37:50;;;;;;;;;;;20.80;99.90;;;;;;5083725;28;19961;-88
2023/05/29 11:40:15;;;;;;;;;;;21.10;99.90;;;;;;5096000;28;19935;-87
2023/05/29 11:42:44;;;;;;;;;;;20.30;99.90;;;;;;5083540;28;20034;-85
2023/05/29 11:45:10;;;;;;;;;;;20.00;99.90;;;;;;5096686;28;19928;-85
2023/05/29 11:47:55;;;;;;;;;;;20.80;99.90;;;;;;5098258;28;19958;-88
2023/05/29 11:50:28;;;;;;;;;;;21.00;99.90;;;;;;5092799;28;19934;-87
2023/05/29 11:52:54;;;;;;;;;;;21.40;98.90;;;;;;5076421;28;19931;-85
2023/05/29 11:55:20;;;;;;;;;;;20.90;98.70;;;;;;5099881;28;19924;-87
2023/05/29 11:57:46;;;;;;;;;;;21.50;99.30;;;;;;5095899;28;19935;-89
2023/05/29 12:00:13;;;;;;;;;;;20.70;98.70;;;;;;5094686;28;19931;-84
2023/05/29 12:02:39;;;;;;;;;;;21.20;99.90;;;;;;5086407;28;20399;-85
2023/05/29 12:05:07;;;;;;;;;;;20.90;99.90;;;;;;5092104;28;19928;-83
2023/05/29 12:07:33;;;;;;;;;;;21.20;99.90;;;;;;5089701;28;19935;-87
2023/05/29 12:10:11;;;;;;;;;;;21.00;99.80;;;;;;5081509;28;19924;-85
2023/05/29 12:12:39;;;;;;;;;;;21.00;99.90;;;;;;5088756;28;19932;-87
2023/05/29 12:15:06;;;;;;;;;;;20.80;99.90;;;;;;5081271;28;19935;-86
2023/05/29 12:17:32;;;;;;;;;;;19.90;99.90;;;;;;5093625;28;19932;-87
2023/05/29 12:19:58;;;;;;;;;;;21.00;99.90;;;;;;5100170;28;20376;-91
2023/05/29 12:22:36;;;;;;;;;;;21.10;99.90;;;;;;5096573;28;19924;-88
2023/05/29 12:25:04;;;;;;;;;;;20.80;98.70;;;;;;5100971;28;19928;-85
2023/05/29 12:27:31;;;;;;;;;;;21.20;99.90;;;;;;5093937;28;19946;-86
2023/05/29 12:30:01;;;;;;;;;;;20.20;97.70;;;;;;5100471;28;19928;-87
2023/05/29 12:32:34;;;;;;;;;;;21.00;98.00;;;;;;5081333;28;19927;-85
2023/05/29 12:34:59;;;;;;;;;;;21.30;98.00;;;;;;5099578;28;19984;-87
2023/05/29 12:37:25;;;;;;;;;;;21.40;99.90;;;;;;5098257;28;19936;-88
2023/05/29 12:40:10;;;;;;;;;;;21.10;99.90;;;;;;5099605;28;20010;-89
2023/05/29 12:42:37;;;;;;;;;;;21.10;99.70;;;;;;5078145;28;19934;-86
2023/05/29 12:45:04;;;;;;;;;;;21.20;99.90;;;;;;5095949;28;19927;-87
2023/05/29 12:47:29;;;;;;;;;;;21.20;98.70;;;;;;5082244;28;19984;-87
2023/05/29 12:49:56;;;;;;;;;;;20.80;96.90;;;;;;5096811;28;19924;-87
2023/05/29 12:52:23;;;;;;;;;;;20.30;97.20;;;;;;5096029;28;19972;-89
2023/05/29 12:54:48;;;;;;;;;;;20.30;98.80;;;;;;5077612;28;19932;-92
2023/05/29 12:57:14;;;;;;;;;;;20.60;98.90;;;;;;5082124;28;19979;-84
2023/05/29 12:59:40;;;;;;;;;;;20.90;98.30;;;;;;5099637;28;19934;-91
2023/05/29 13:02:07;;;;;;;;;;;20.70;99.90;;;;;;5083356;28;19935;-86
2023/05/29 13:04:33;;;;;;;;;;;20.20;96.90;;;;;;5080808;28;20651;-86
2023/05/29 13:06:59;;;;;;;;;;;20.60;99.00;;;;;;5101598;28;19923;-85
2023/05/29 13:09:25;;;;;;;;;;;21.00;99.90;;;;;;5096551;28;19935;-86
2023/05/29 13:11:50;;;;;;;;;;;20.60;99.90;;;;;;5074158;28;20369;-86
2023/05/29 13:14:16;;;;;;;;;;;21.20;99.90;;;;;;5097054;28;20419;-86
2023/05/29 13:16:41;;;;;;;;;;;21.30;98.50;;;;;;5094943;28;19931;-84
2023/05/29 13:19:07;;;;;;;;;;;21.40;99.80;;;;;;5092091;28;19938;-86
2023/05/29 13:21:32;;;;;;;;;;;21.50;98.20;;;;;;5097579;28;19931;-87
2023/05/29 13:23:58;;;;;;;;;;;21.00;97.90;;;;;;5095703;28;20039;-88
2023/05/29 13:26:25;;;;;;;;;;;21.40;99.90;;;;;;5094730;28;19928;-85
2023/05/29 13:28:51;;;;;;;;;;;21.20;99.70;;;;;;5081481;28;19928;-87
2023/05/29 13:31:22;;;;;;;;;;;20.60;98.10;;;;;;5100837;28;19928;-88
2023/05/29 13:33:50;;;;;;;;;;;20.20;97.80;;;;;;5081855;28;20060;-92
2023/05/29 13:36:16;;;;;;;;;;;20.90;99.90;;;;;;5074685;28;20011;-84
2023/05/29 13:38:41;;;;;;;;;;;21.20;99.90;;;;;;5097945;28;20014;-87
2023/05/29 13:41:10;;;;;;;;;;;21.20;98.10;;;;;;5079486;28;19971;-89
2023/05/29 13:43:36;;;;;;;;;;;20.70;96.30;;;;;;5095216;28;19932;-86
2023/05/29 13:46:01;;;;;;;;;;;20.90;97.30;;;;;;5103074;28;19997;-85
2023/05/29 13:48:27;;;;;;;;;;;21.50;98.80;;;;;;5098509;28;19950;-85
2023/05/29 13:50:52;;;;;;;;;;;21.20;98.40;;;;;;5099674;28;20414;-86
2023/05/29 13:53:18;;;;;;;;;;;20.80;98.60;;;;;;5094312;28;19924;-85
2023/05/29 13:55:43;;;;;;;;;;;20.60;95.90;;;;;;5100429;28;19924;-86
2023/05/29 13:58:21;;;;;;;;;;;21.20;97.20;;;;;;5098517;28;20361;-86
2023/05/29 14:00:47;;;;;;;;;;;20.70;97.30;;;;;;5102360;28;19928;-86
2023/05/29 14:03:12;;;;;;;;;;;20.70;98.30;;;;;;5085318;28;20285;-84
2023/05/29 14:05:38;;;;;;;;;;;19.60;94.40;;;;;;5098331;28;19978;-88
2023/05/29 14:08:04;;;;;;;;;;;20.40;98.60;;;;;;5102309;28;19928;-84
2023/05/29 14:10:29;;;;;;;;;;;20.10;99.20;;;;;;5097814;28;19927;-84
2023/05/29 14:12:55;;;;;;;;;;;20.80;98.70;;;;;;5102200;28;19923;-85
2023/05/29 14:15:20;;;;;;;;;;;20.70;93.50;;;;;;5103067;28;19935;-85
2023/05/29 14:17:46;;;;;;;;;;;20.20;97.30;;;;;;5101199;28;19928;-83
2023/05/29 14:20:12;;;;;;;;;;;20.20;97.60;;;;;;5085684;28;19928;-84